sensor_id;sensor_type;location;lat;lon;timestamp;pressure;altitude;pressure_sealevel;temperature;humidity
61554;BME280;47425;51.976;5.326;2023-04-23T00:00:42;100652.94;;;16.68;48.46
61554;BME280;47425;51.976;5.326;2023-04-23T00:03:09;100649.78;;;16.79;47.98
61554;BME280;47425;51.976;5.326;2023-04-23T00:05:37;100642.47;;;16.84;47.97
61554;BME280;47425;51.976;5.326;2023-04-23T00:08:05;100637.84;;;16.89;48.00
61554;BME280;47425;51.976;5.326;2023-04-23T00:10:33;100638.69;;;16.90;47.81
61554;BME280;47425;51.976;5.326;2023-04-23T00:13:00;100639.44;;;16.92;48.07
61554;BME280;47425;51.976;5.326;2023-04-23T00:15:27;100629.94;;;16.88;47.66
61554;BME280;47425;51.976;5.326;2023-04-23T00:17:54;100634.06;;;16.76;47.78
61554;BME280;47425;51.976;5.326;2023-04-23T00:20:20;100627.88;;;16.58;48.20
61554;BME280;47425;51.976;5.326;2023-04-23T00:22:47;100619.47;;;16.50;48.47
61554;BME280;47425;51.976;5.326;2023-04-23T00:25:15;100627.41;;;16.50;48.46
61554;BME280;47425;51.976;5.326;2023-04-23T00:27:43;100619.72;;;16.45;48.46
61554;BME280;47425;51.976;5.326;2023-04-23T00:30:10;100617.06;;;16.45;48.58
61554;BME280;47425;51.976;5.326;2023-04-23T00:32:36;100619.63;;;16.47;48.67
61554;BME280;47425;51.976;5.326;2023-04-23T00:35:04;100621.41;;;16.46;48.29
61554;BME280;47425;51.976;5.326;2023-04-23T00:37:32;100617.69;;;16.50;48.36
61554;BME280;47425;51.976;5.326;2023-04-23T00:39:58;100613.47;;;16.46;48.35
61554;BME280;47425;51.976;5.326;2023-04-23T00:42:26;100612.06;;;16.39;48.34
61554;BME280;47425;51.976;5.326;2023-04-23T00:44:54;100597.59;;;16.28;48.59
61554;BME280;47425;51.976;5.326;2023-04-23T00:47:21;100600.53;;;16.22;48.45
61554;BME280;47425;51.976;5.326;2023-04-23T00:49:48;100591.16;;;16.15;48.64
61554;BME280;47425;51.976;5.326;2023-04-23T00:52:35;100594.78;;;16.14;49.10
61554;BME280;47425;51.976;5.326;2023-04-23T00:55:03;100588.44;;;16.17;48.83
61554;BME280;47425;51.976;5.326;2023-04-23T00:57:30;100591.72;;;16.22;48.86
61554;BME280;47425;51.976;5.326;2023-04-23T00:59:58;100584.56;;;16.06;48.88
61554;BME280;47425;51.976;5.326;2023-04-23T01:02:25;100588.06;;;15.88;49.27
61554;BME280;47425;51.976;5.326;2023-04-23T01:04:52;100576.00;;;15.82;49.49
61554;BME280;47425;51.976;5.326;2023-04-23T01:07:19;100580.38;;;15.83;49.67
61554;BME280;47425;51.976;5.326;2023-04-23T01:09:47;100569.94;;;15.80;49.84
61554;BME280;47425;51.976;5.326;2023-04-23T01:12:16;100561.13;;;15.80;49.76
61554;BME280;47425;51.976;5.326;2023-04-23T01:14:42;100570.03;;;15.77;50.09
61554;BME280;47425;51.976;5.326;2023-04-23T01:17:11;100568.94;;;15.83;49.94
61554;BME280;47425;51.976;5.326;2023-04-23T01:19:39;100561.41;;;15.92;49.94
61554;BME280;47425;51.976;5.326;2023-04-23T01:22:08;100556.94;;;15.94;49.63
61554;BME280;47425;51.976;5.326;2023-04-23T01:24:35;100560.88;;;16.05;49.63
61554;BME280;47425;51.976;5.326;2023-04-23T01:27:03;100558.34;;;16.02;49.41
61554;BME280;47425;51.976;5.326;2023-04-23T01:29:31;100563.56;;;16.03;49.49
61554;BME280;47425;51.976;5.326;2023-04-23T01:31:58;100557.13;;;15.90;49.55
61554;BME280;47425;51.976;5.326;2023-04-23T01:34:26;100554.13;;;15.78;50.07
61554;BME280;47425;51.976;5.326;2023-04-23T01:36:52;100553.41;;;15.75;49.87
61554;BME280;47425;51.976;5.326;2023-04-23T01:39:22;100556.59;;;15.83;49.83
61554;BME280;47425;51.976;5.326;2023-04-23T01:41:48;100548.69;;;15.83;50.04
61554;BME280;47425;51.976;5.326;2023-04-23T01:44:15;100550.75;;;15.75;50.23
61554;BME280;47425;51.976;5.326;2023-04-23T01:46:43;100541.59;;;15.84;50.00
61554;BME280;47425;51.976;5.326;2023-04-23T01:49:09;100539.97;;;15.81;49.98
61554;BME280;47425;51.976;5.326;2023-04-23T01:51:36;100541.59;;;15.84;50.28
61554;BME280;47425;51.976;5.326;2023-04-23T01:54:02;100542.72;;;15.78;50.24
61554;BME280;47425;51.976;5.326;2023-04-23T01:56:31;100542.25;;;15.89;50.26
61554;BME280;47425;51.976;5.326;2023-04-23T01:59:00;100534.44;;;16.05;49.74
61554;BME280;47425;51.976;5.326;2023-04-23T02:01:39;100537.41;;;16.16;49.49
61554;BME280;47425;51.976;5.326;2023-04-23T02:04:07;100531.97;;;16.19;49.51
61554;BME280;47425;51.976;5.326;2023-04-23T02:06:34;100529.13;;;16.24;49.34
61554;BME280;47425;51.976;5.326;2023-04-23T02:09:09;100535.16;;;16.26;49.44
61554;BME280;47425;51.976;5.326;2023-04-23T02:11:37;100539.91;;;16.19;49.49
61554;BME280;47425;51.976;5.326;2023-04-23T02:14:05;100530.81;;;16.07;49.52
61554;BME280;47425;51.976;5.326;2023-04-23T02:16:31;100527.22;;;16.08;49.48
61554;BME280;47425;51.976;5.326;2023-04-23T02:18:58;100531.94;;;16.02;49.90
61554;BME280;47425;51.976;5.326;2023-04-23T02:21:26;100527.53;;;16.02;49.52
61554;BME280;47425;51.976;5.326;2023-04-23T02:23:54;100524.44;;;16.12;49.39
61554;BME280;47425;51.976;5.326;2023-04-23T02:26:20;100518.53;;;16.06;49.58
61554;BME280;47425;51.976;5.326;2023-04-23T02:28:50;100514.16;;;16.05;49.65
61554;BME280;47425;51.976;5.326;2023-04-23T02:31:18;100515.59;;;15.93;49.95
61554;BME280;47425;51.976;5.326;2023-04-23T02:33:44;100517.16;;;15.98;49.94
61554;BME280;47425;51.976;5.326;2023-04-23T02:36:11;100517.25;;;15.96;50.09
61554;BME280;47425;51.976;5.326;2023-04-23T02:38:37;100508.69;;;15.91;49.98
61554;BME280;47425;51.976;5.326;2023-04-23T02:41:06;100511.31;;;15.91;50.09
61554;BME280;47425;51.976;5.326;2023-04-23T02:43:33;100509.81;;;16.04;49.60
61554;BME280;47425;51.976;5.326;2023-04-23T02:46:01;100513.88;;;16.12;49.48
61554;BME280;47425;51.976;5.326;2023-04-23T02:48:33;100511.38;;;16.26;49.50
61554;BME280;47425;51.976;5.326;2023-04-23T02:51:01;100514.13;;;16.42;49.05
61554;BME280;47425;51.976;5.326;2023-04-23T02:53:27;100513.38;;;16.40;49.38
61554;BME280;47425;51.976;5.326;2023-04-23T02:55:54;100510.25;;;16.49;49.06
61554;BME280;47425;51.976;5.326;2023-04-23T02:58:22;100512.75;;;16.52;48.91
61554;BME280;47425;51.976;5.326;2023-04-23T03:00:51;100516.09;;;16.56;48.84
61554;BME280;47425;51.976;5.326;2023-04-23T03:03:20;100518.94;;;16.69;48.59
61554;BME280;47425;51.976;5.326;2023-04-23T03:05:51;100530.59;;;16.82;48.21
61554;BME280;47425;51.976;5.326;2023-04-23T03:08:18;100528.50;;;16.89;48.18
61554;BME280;47425;51.976;5.326;2023-04-23T03:10:44;100514.06;;;16.96;48.09
61554;BME280;47425;51.976;5.326;2023-04-23T03:13:11;100522.47;;;17.04;47.86
61554;BME280;47425;51.976;5.326;2023-04-23T03:15:37;100512.72;;;17.05;47.91
61554;BME280;47425;51.976;5.326;2023-04-23T03:18:05;100510.78;;;17.08;47.74
61554;BME280;47425;51.976;5.326;2023-04-23T03:20:34;100507.34;;;17.06;47.70
61554;BME280;47425;51.976;5.326;2023-04-23T03:23:00;100506.66;;;17.03;47.85
61554;BME280;47425;51.976;5.326;2023-04-23T03:25:28;100499.66;;;17.02;48.04
61554;BME280;47425;51.976;5.326;2023-04-23T03:27:55;100501.38;;;17.03;47.84
61554;BME280;47425;51.976;5.326;2023-04-23T03:30:21;100504.47;;;17.11;47.77
61554;BME280;47425;51.976;5.326;2023-04-23T03:32:48;100504.38;;;17.13;47.57
61554;BME280;47425;51.976;5.326;2023-04-23T03:35:16;100497.28;;;17.13;47.69
61554;BME280;47425;51.976;5.326;2023-04-23T03:37:47;100505.13;;;17.15;47.75
61554;BME280;47425;51.976;5.326;2023-04-23T03:40:14;100504.81;;;17.21;47.50
61554;BME280;47425;51.976;5.326;2023-04-23T03:42:43;100505.59;;;17.23;47.40
61554;BME280;47425;51.976;5.326;2023-04-23T03:45:13;100501.91;;;17.25;47.29
61554;BME280;47425;51.976;5.326;2023-04-23T03:47:41;100501.69;;;17.30;47.53
61554;BME280;47425;51.976;5.326;2023-04-23T03:50:08;100497.94;;;17.34;47.21
61554;BME280;47425;51.976;5.326;2023-04-23T03:52:39;100495.19;;;17.36;47.06
61554;BME280;47425;51.976;5.326;2023-04-23T03:55:11;100496.03;;;17.36;47.13
61554;BME280;47425;51.976;5.326;2023-04-23T03:57:42;100495.28;;;17.34;47.19
61554;BME280;47425;51.976;5.326;2023-04-23T04:00:19;100488.97;;;17.37;47.23
61554;BME280;47425;51.976;5.326;2023-04-23T04:02:47;100486.22;;;17.38;47.14
61554;BME280;47425;51.976;5.326;2023-04-23T04:05:13;100489.72;;;17.39;47.07
61554;BME280;47425;51.976;5.326;2023-04-23T04:07:40;100493.25;;;17.39;46.90
61554;BME280;47425;51.976;5.326;2023-04-23T04:10:08;100493.16;;;17.41;47.19
61554;BME280;47425;51.976;5.326;2023-04-23T04:12:35;100480.84;;;17.40;46.85
61554;BME280;47425;51.976;5.326;2023-04-23T04:15:02;100491.34;;;17.41;46.98
61554;BME280;47425;51.976;5.326;2023-04-23T04:17:29;100482.47;;;17.42;46.96
61554;BME280;47425;51.976;5.326;2023-04-23T04:19:56;100485.13;;;17.42;46.99
61554;BME280;47425;51.976;5.326;2023-04-23T04:22:23;100489.41;;;17.45;47.02
61554;BME280;47425;51.976;5.326;2023-04-23T04:24:49;100489.47;;;17.43;47.05
61554;BME280;47425;51.976;5.326;2023-04-23T04:27:16;100492.13;;;17.43;46.88
61554;BME280;47425;51.976;5.326;2023-04-23T04:29:46;100492.03;;;17.45;46.91
61554;BME280;47425;51.976;5.326;2023-04-23T04:32:12;100499.16;;;17.44;46.91
61554;BME280;47425;51.976;5.326;2023-04-23T04:34:38;100491.97;;;17.47;46.92
61554;BME280;47425;51.976;5.326;2023-04-23T04:37:06;100492.22;;;17.42;46.80
61554;BME280;47425;51.976;5.326;2023-04-23T04:39:35;100492.31;;;17.40;47.17
61554;BME280;47425;51.976;5.326;2023-04-23T04:42:01;100496.72;;;17.40;47.24
61554;BME280;47425;51.976;5.326;2023-04-23T04:44:28;100495.72;;;17.42;46.96
61554;BME280;47425;51.976;5.326;2023-04-23T04:46:57;100500.00;;;17.45;46.81
61554;BME280;47425;51.976;5.326;2023-04-23T04:49:23;100502.53;;;17.47;47.00
61554;BME280;47425;51.976;5.326;2023-04-23T04:51:50;100498.03;;;17.49;46.75
61554;BME280;47425;51.976;5.326;2023-04-23T04:54:18;100498.63;;;17.54;46.86
61554;BME280;47425;51.976;5.326;2023-04-23T04:56:46;100501.03;;;17.58;46.74
61554;BME280;47425;51.976;5.326;2023-04-23T04:59:12;100495.63;;;17.60;46.48
61554;BME280;47425;51.976;5.326;2023-04-23T05:01:39;100498.88;;;17.65;46.48
61554;BME280;47425;51.976;5.326;2023-04-23T05:04:08;100492.75;;;17.65;46.41
61554;BME280;47425;51.976;5.326;2023-04-23T05:06:34;100497.03;;;17.67;46.42
61554;BME280;47425;51.976;5.326;2023-04-23T05:09:21;100490.94;;;17.65;46.57
61554;BME280;47425;51.976;5.326;2023-04-23T05:11:47;100492.75;;;17.65;46.35
61554;BME280;47425;51.976;5.326;2023-04-23T05:14:15;100490.84;;;17.67;46.33
61554;BME280;47425;51.976;5.326;2023-04-23T05:16:41;100488.13;;;17.68;46.34
61554;BME280;47425;51.976;5.326;2023-04-23T05:19:09;100495.91;;;17.71;46.17
61554;BME280;47425;51.976;5.326;2023-04-23T05:21:35;100496.06;;;17.68;46.35
61554;BME280;47425;51.976;5.326;2023-04-23T05:24:03;100489.75;;;17.71;46.00
61554;BME280;47425;51.976;5.326;2023-04-23T05:26:30;100495.63;;;17.76;45.92
61554;BME280;47425;51.976;5.326;2023-04-23T05:28:56;100496.34;;;17.80;45.95
61554;BME280;47425;51.976;5.326;2023-04-23T05:31:22;100488.19;;;17.83;45.99
61554;BME280;47425;51.976;5.326;2023-04-23T05:33:51;100494.53;;;17.80;46.09
61554;BME280;47425;51.976;5.326;2023-04-23T05:36:19;100495.47;;;17.79;45.82
61554;BME280;47425;51.976;5.326;2023-04-23T05:38:46;100493.69;;;17.80;45.82
61554;BME280;47425;51.976;5.326;2023-04-23T05:41:13;100503.31;;;17.81;45.92
61554;BME280;47425;51.976;5.326;2023-04-23T05:43:40;100500.50;;;17.84;46.12
61554;BME280;47425;51.976;5.326;2023-04-23T05:46:08;100497.78;;;17.85;45.65
61554;BME280;47425;51.976;5.326;2023-04-23T05:48:34;100499.56;;;17.85;45.67
61554;BME280;47425;51.976;5.326;2023-04-23T05:51:02;100497.69;;;17.87;45.68
61554;BME280;47425;51.976;5.326;2023-04-23T05:53:29;100492.47;;;17.85;46.04
61554;BME280;47425;51.976;5.326;2023-04-23T05:55:56;100499.50;;;17.86;45.64
61554;BME280;47425;51.976;5.326;2023-04-23T05:58:24;100492.19;;;17.90;45.85
61554;BME280;47425;51.976;5.326;2023-04-23T06:00:50;100495.03;;;17.87;45.95
61554;BME280;47425;51.976;5.326;2023-04-23T06:03:17;100487.88;;;17.89;45.74
61554;BME280;47425;51.976;5.326;2023-04-23T06:05:44;100481.59;;;17.90;45.74
61554;BME280;47425;51.976;5.326;2023-04-23T06:08:11;100490.56;;;17.87;45.91
61554;BME280;47425;51.976;5.326;2023-04-23T06:10:39;100487.94;;;17.87;45.69
61554;BME280;47425;51.976;5.326;2023-04-23T06:13:06;100492.38;;;17.87;45.74
61554;BME280;47425;51.976;5.326;2023-04-23T06:15:32;100488.56;;;17.92;45.98
61554;BME280;47425;51.976;5.326;2023-04-23T06:18:00;100485.81;;;17.94;45.86
61554;BME280;47425;51.976;5.326;2023-04-23T06:20:29;100480.66;;;17.91;45.66
61554;BME280;47425;51.976;5.326;2023-04-23T06:22:56;100482.31;;;17.93;45.86
61554;BME280;47425;51.976;5.326;2023-04-23T06:25:25;100478.94;;;17.90;45.60
61554;BME280;47425;51.976;5.326;2023-04-23T06:27:53;100472.72;;;17.91;45.99
61554;BME280;47425;51.976;5.326;2023-04-23T06:30:24;100474.13;;;17.98;45.97
61554;BME280;47425;51.976;5.326;2023-04-23T06:32:50;100472.41;;;17.97;45.84
61554;BME280;47425;51.976;5.326;2023-04-23T06:35:18;100462.22;;;18.05;45.70
61554;BME280;47425;51.976;5.326;2023-04-23T06:37:45;100456.91;;;18.05;45.63
61554;BME280;47425;51.976;5.326;2023-04-23T06:40:13;100455.72;;;18.11;45.52
61554;BME280;47425;51.976;5.326;2023-04-23T06:42:41;100456.63;;;18.10;45.87
61554;BME280;47425;51.976;5.326;2023-04-23T06:45:19;100457.59;;;18.09;45.85
61554;BME280;47425;51.976;5.326;2023-04-23T06:47:46;100451.19;;;18.13;45.91
61554;BME280;47425;51.976;5.326;2023-04-23T06:50:14;100451.09;;;18.15;45.81
61554;BME280;47425;51.976;5.326;2023-04-23T06:52:41;100455.38;;;18.17;45.73
61554;BME280;47425;51.976;5.326;2023-04-23T06:55:08;100458.75;;;18.19;45.61
61554;BME280;47425;51.976;5.326;2023-04-23T06:57:34;100458.41;;;18.25;45.61
61554;BME280;47425;51.976;5.326;2023-04-23T07:00:01;100461.56;;;18.32;45.48
61554;BME280;47425;51.976;5.326;2023-04-23T07:02:36;100456.16;;;18.34;45.47
61554;BME280;47425;51.976;5.326;2023-04-23T07:05:04;100463.75;;;18.40;45.35
61554;BME280;47425;51.976;5.326;2023-04-23T07:07:30;100461.75;;;18.43;45.00
61554;BME280;47425;51.976;5.326;2023-04-23T07:09:57;100461.09;;;18.40;45.52
61554;BME280;47425;51.976;5.326;2023-04-23T07:12:24;100449.19;;;18.47;45.32
61554;BME280;47425;51.976;5.326;2023-04-23T07:14:50;100452.31;;;18.54;45.20
61554;BME280;47425;51.976;5.326;2023-04-23T07:17:18;100450.44;;;18.56;45.12
61554;BME280;47425;51.976;5.326;2023-04-23T07:19:47;100455.75;;;18.56;45.07
61554;BME280;47425;51.976;5.326;2023-04-23T07:22:13;100450.25;;;18.59;45.15
61554;BME280;47425;51.976;5.326;2023-04-23T07:24:40;100451.47;;;18.53;45.22
61554;BME280;47425;51.976;5.326;2023-04-23T07:27:06;100450.69;;;18.51;45.22
61554;BME280;47425;51.976;5.326;2023-04-23T07:29:34;100452.31;;;18.54;45.08
61554;BME280;47425;51.976;5.326;2023-04-23T07:32:00;100447.94;;;18.53;45.41
61554;BME280;47425;51.976;5.326;2023-04-23T07:34:27;100440.00;;;18.53;45.72
61554;BME280;47425;51.976;5.326;2023-04-23T07:36:56;100436.59;;;18.51;45.89
61554;BME280;47425;51.976;5.326;2023-04-23T07:39:23;100445.13;;;18.56;46.13
61554;BME280;47425;51.976;5.326;2023-04-23T07:41:49;100442.56;;;18.69;45.96
61554;BME280;47425;51.976;5.326;2023-04-23T07:44:16;100434.16;;;18.76;46.02
61554;BME280;47425;51.976;5.326;2023-04-23T07:46:43;100447.22;;;18.79;45.55
61554;BME280;47425;51.976;5.326;2023-04-23T07:49:10;100439.56;;;18.75;45.69
61554;BME280;47425;51.976;5.326;2023-04-23T07:51:36;100444.56;;;18.79;45.92
61554;BME280;47425;51.976;5.326;2023-04-23T07:54:04;100437.38;;;18.82;45.87
61554;BME280;47425;51.976;5.326;2023-04-23T07:56:31;100435.66;;;18.81;46.02
61554;BME280;47425;51.976;5.326;2023-04-23T07:58:58;100439.25;;;18.79;45.96
61554;BME280;47425;51.976;5.326;2023-04-23T08:01:24;100438.59;;;18.76;46.05
61554;BME280;47425;51.976;5.326;2023-04-23T08:03:52;100431.59;;;18.75;46.22
61554;BME280;47425;51.976;5.326;2023-04-23T08:06:20;100427.34;;;18.72;46.47
61554;BME280;47425;51.976;5.326;2023-04-23T08:08:47;100431.22;;;18.67;46.78
61554;BME280;47425;51.976;5.326;2023-04-23T08:11:15;100427.53;;;18.69;46.50
61554;BME280;47425;51.976;5.326;2023-04-23T08:13:43;100426.66;;;18.69;46.66
61554;BME280;47425;51.976;5.326;2023-04-23T08:16:09;100419.56;;;18.69;47.10
61554;BME280;47425;51.976;5.326;2023-04-23T08:18:36;100425.91;;;18.67;47.19
61554;BME280;47425;51.976;5.326;2023-04-23T08:21:02;100428.28;;;18.71;47.00
61554;BME280;47425;51.976;5.326;2023-04-23T08:23:29;100416.81;;;18.85;46.59
61554;BME280;47425;51.976;5.326;2023-04-23T08:25:55;100412.47;;;18.84;46.83
61554;BME280;47425;51.976;5.326;2023-04-23T08:28:24;100421.97;;;18.88;46.47
61554;BME280;47425;51.976;5.326;2023-04-23T08:30:52;100428.97;;;18.89;46.56
61554;BME280;47425;51.976;5.326;2023-04-23T08:33:18;100427.75;;;18.95;46.21
61554;BME280;47425;51.976;5.326;2023-04-23T08:35:45;100421.00;;;19.04;46.26
61554;BME280;47425;51.976;5.326;2023-04-23T08:38:13;100421.09;;;19.02;46.14
61554;BME280;47425;51.976;5.326;2023-04-23T08:40:40;100415.41;;;19.08;46.19
61554;BME280;47425;51.976;5.326;2023-04-23T08:43:09;100421.66;;;19.07;45.89
61554;BME280;47425;51.976;5.326;2023-04-23T08:45:38;100419.03;;;19.07;46.17
61554;BME280;47425;51.976;5.326;2023-04-23T08:48:06;100416.25;;;19.09;46.03
61554;BME280;47425;51.976;5.326;2023-04-23T08:50:35;100413.41;;;19.12;46.00
61554;BME280;47425;51.976;5.326;2023-04-23T08:53:02;100406.94;;;19.16;45.74
61554;BME280;47425;51.976;5.326;2023-04-23T08:55:30;100410.16;;;19.21;45.83
61554;BME280;47425;51.976;5.326;2023-04-23T08:58:00;100406.56;;;19.22;45.76
61554;BME280;47425;51.976;5.326;2023-04-23T09:00:31;100407.50;;;19.21;45.59
61554;BME280;47425;51.976;5.326;2023-04-23T09:03:00;100407.50;;;19.21;46.09
61554;BME280;47425;51.976;5.326;2023-04-23T09:05:27;100406.78;;;19.19;46.19
61554;BME280;47425;51.976;5.326;2023-04-23T09:07:54;100411.88;;;19.22;46.04
61554;BME280;47425;51.976;5.326;2023-04-23T09:10:22;100414.16;;;19.28;45.90
61554;BME280;47425;51.976;5.326;2023-04-23T09:12:48;100401.41;;;19.34;45.65
61554;BME280;47425;51.976;5.326;2023-04-23T09:15:16;100406.66;;;19.35;46.03
61554;BME280;47425;51.976;5.326;2023-04-23T09:17:43;100410.53;;;19.29;46.19
61554;BME280;47425;51.976;5.326;2023-04-23T09:20:12;100406.81;;;19.32;46.23
61554;BME280;47425;51.976;5.326;2023-04-23T09:22:39;100403.22;;;19.33;45.84
61554;BME280;47425;51.976;5.326;2023-04-23T09:25:08;100404.38;;;19.29;46.16
61554;BME280;47425;51.976;5.326;2023-04-23T09:27:35;100405.22;;;19.29;46.39
61554;BME280;47425;51.976;5.326;2023-04-23T09:30:02;100398.84;;;19.32;46.57
61554;BME280;47425;51.976;5.326;2023-04-23T09:32:32;100400.28;;;19.38;46.46
61554;BME280;47425;51.976;5.326;2023-04-23T09:35:01;100400.56;;;19.33;46.02
61554;BME280;47425;51.976;5.326;2023-04-23T09:37:29;100395.38;;;19.32;46.51
61554;BME280;47425;51.976;5.326;2023-04-23T09:39:57;100391.88;;;19.31;46.34
61554;BME280;47425;51.976;5.326;2023-04-23T09:42:46;100400.19;;;19.39;46.22
61554;BME280;47425;51.976;5.326;2023-04-23T09:45:12;100402.84;;;19.39;46.45
61554;BME280;47425;51.976;5.326;2023-04-23T09:47:39;100394.66;;;19.42;46.11
61554;BME280;47425;51.976;5.326;2023-04-23T09:50:07;100391.06;;;19.43;46.17
61554;BME280;47425;51.976;5.326;2023-04-23T09:52:38;100387.47;;;19.44;46.18
61554;BME280;47425;51.976;5.326;2023-04-23T09:55:07;100388.88;;;19.50;46.57
61554;BME280;47425;51.976;5.326;2023-04-23T09:57:34;100386.38;;;19.47;46.40
61554;BME280;47425;51.976;5.326;2023-04-23T10:00:11;100384.72;;;19.46;46.60
61554;BME280;47425;51.976;5.326;2023-04-23T10:02:58;100394.06;;;19.52;46.20
61554;BME280;47425;51.976;5.326;2023-04-23T10:05:24;100383.34;;;19.53;46.07
61554;BME280;47425;51.976;5.326;2023-04-23T10:07:53;100379.63;;;19.56;46.14
61554;BME280;47425;51.976;5.326;2023-04-23T10:10:22;100381.91;;;19.62;46.35
61554;BME280;47425;51.976;5.326;2023-04-23T10:12:49;100373.84;;;19.64;45.90
61554;BME280;47425;51.976;5.326;2023-04-23T10:15:16;100379.88;;;19.66;46.37
61554;BME280;47425;51.976;5.326;2023-04-23T10:17:44;100381.38;;;19.70;45.76
61554;BME280;47425;51.976;5.326;2023-04-23T10:20:13;100379.03;;;19.65;46.18
61554;BME280;47425;51.976;5.326;2023-04-23T10:22:39;100374.66;;;19.64;45.83
61554;BME280;47425;51.976;5.326;2023-04-23T10:25:09;100375.53;;;19.65;46.06
61554;BME280;47425;51.976;5.326;2023-04-23T10:27:36;100377.31;;;19.64;45.84
61554;BME280;47425;51.976;5.326;2023-04-23T10:30:04;100380.09;;;19.62;46.11
61554;BME280;47425;51.976;5.326;2023-04-23T10:32:44;100377.44;;;19.62;45.87
61554;BME280;47425;51.976;5.326;2023-04-23T10:35:13;100374.47;;;19.67;46.29
61554;BME280;47425;51.976;5.326;2023-04-23T10:37:40;100366.00;;;19.75;45.88
61554;BME280;47425;51.976;5.326;2023-04-23T10:40:09;100361.03;;;19.83;45.69
61554;BME280;47425;51.976;5.326;2023-04-23T10:42:38;100357.72;;;19.79;45.43
61554;BME280;47425;51.976;5.326;2023-04-23T10:45:11;100346.50;;;19.89;45.12
61554;BME280;47425;51.976;5.326;2023-04-23T10:47:40;100349.69;;;19.94;45.14
61554;BME280;47425;51.976;5.326;2023-04-23T10:50:22;100340.03;;;20.06;45.00
61554;BME280;47425;51.976;5.326;2023-04-23T10:52:49;100349.38;;;20.11;44.61
61554;BME280;47425;51.976;5.326;2023-04-23T10:55:22;100335.16;;;20.12;44.72
61554;BME280;47425;51.976;5.326;2023-04-23T10:57:59;100339.28;;;20.17;44.58
61554;BME280;47425;51.976;5.326;2023-04-23T11:00:28;100339.19;;;20.18;44.14
61554;BME280;47425;51.976;5.326;2023-04-23T11:02:55;100330.28;;;20.06;44.51
61554;BME280;47425;51.976;5.326;2023-04-23T11:05:21;100334.09;;;20.02;44.52
61554;BME280;47425;51.976;5.326;2023-04-23T11:08:02;100326.00;;;20.04;44.84
61554;BME280;47425;51.976;5.326;2023-04-23T11:10:31;100315.91;;;20.09;44.91
61554;BME280;47425;51.976;5.326;2023-04-23T11:13:17;100314.22;;;20.08;44.21
61554;BME280;47425;51.976;5.326;2023-04-23T11:15:45;100307.84;;;20.10;44.40
61554;BME280;47425;51.976;5.326;2023-04-23T11:18:12;100312.81;;;20.15;44.15
61554;BME280;47425;51.976;5.326;2023-04-23T11:20:38;100316.44;;;20.14;44.00
61554;BME280;47425;51.976;5.326;2023-04-23T11:23:06;100306.00;;;20.11;44.01
61554;BME280;47425;51.976;5.326;2023-04-23T11:25:34;100308.34;;;20.16;44.16
61554;BME280;47425;51.976;5.326;2023-04-23T11:28:00;100295.91;;;20.16;44.35
61554;BME280;47425;51.976;5.326;2023-04-23T11:30:28;100293.25;;;20.16;43.86
61554;BME280;47425;51.976;5.326;2023-04-23T11:32:56;100284.84;;;20.22;43.92
61554;BME280;47425;51.976;5.326;2023-04-23T11:35:24;100281.66;;;20.30;43.85
61554;BME280;47425;51.976;5.326;2023-04-23T11:37:52;100279.84;;;20.31;43.42
61554;BME280;47425;51.976;5.326;2023-04-23T11:40:20;100273.13;;;20.25;43.71
61554;BME280;47425;51.976;5.326;2023-04-23T11:42:48;100271.47;;;20.24;44.15
61554;BME280;47425;51.976;5.326;2023-04-23T11:45:15;100261.66;;;20.24;43.85
61554;BME280;47425;51.976;5.326;2023-04-23T11:47:42;100257.09;;;20.14;44.08
61554;BME280;47425;51.976;5.326;2023-04-23T11:50:10;100258.16;;;20.11;43.73
61554;BME280;47425;51.976;5.326;2023-04-23T11:52:43;100250.19;;;20.11;44.11
61554;BME280;47425;51.976;5.326;2023-04-23T11:55:09;100249.84;;;20.16;43.58
61554;BME280;47425;51.976;5.326;2023-04-23T11:57:41;100247.72;;;20.21;43.90
61554;BME280;47425;51.976;5.326;2023-04-23T12:00:12;100244.66;;;20.27;43.76
61554;BME280;47425;51.976;5.326;2023-04-23T12:02:48;100236.78;;;20.25;43.55
61554;BME280;47425;51.976;5.326;2023-04-23T12:08:07;100241.56;;;20.33;43.07
61554;BME280;47425;51.976;5.326;2023-04-23T12:10:41;100234.75;;;20.29;43.69
61554;BME280;47425;51.976;5.326;2023-04-23T12:13:12;100230.06;;;20.33;43.55
61554;BME280;47425;51.976;5.326;2023-04-23T12:15:44;100228.16;;;20.35;43.48
61554;BME280;47425;51.976;5.326;2023-04-23T12:18:12;100229.22;;;20.32;43.41
61554;BME280;47425;51.976;5.326;2023-04-23T12:20:38;100227.50;;;20.31;43.44
61554;BME280;47425;51.976;5.326;2023-04-23T12:23:05;100219.53;;;20.31;43.02
61554;BME280;47425;51.976;5.326;2023-04-23T12:25:32;100217.19;;;20.39;43.35
61554;BME280;47425;51.976;5.326;2023-04-23T12:28:01;100216.75;;;20.45;42.78
61554;BME280;47425;51.976;5.326;2023-04-23T12:30:27;100215.56;;;20.50;42.80
61554;BME280;47425;51.976;5.326;2023-04-23T12:32:59;100207.25;;;20.54;43.01
61554;BME280;47425;51.976;5.326;2023-04-23T12:35:36;100205.84;;;20.61;42.44
61554;BME280;47425;51.976;5.326;2023-04-23T12:38:04;100204.69;;;20.53;42.51
61554;BME280;47425;51.976;5.326;2023-04-23T12:40:30;100200.25;;;20.53;42.93
61554;BME280;47425;51.976;5.326;2023-04-23T12:42:57;100201.06;;;20.54;42.52
61554;BME280;47425;51.976;5.326;2023-04-23T12:45:25;100194.69;;;20.56;42.43
61554;BME280;47425;51.976;5.326;2023-04-23T12:47:52;100183.88;;;20.47;42.58
61554;BME280;47425;51.976;5.326;2023-04-23T12:50:20;100187.69;;;20.42;42.96
61554;BME280;47425;51.976;5.326;2023-04-23T12:52:46;100180.69;;;20.41;43.24
61554;BME280;47425;51.976;5.326;2023-04-23T12:55:14;100181.00;;;20.37;43.06
61554;BME280;47425;51.976;5.326;2023-04-23T12:57:40;100174.22;;;20.33;43.11